createdAt,value
2023-05-25T00:01:02.378Z,9.32
2023-05-25T00:03:31.379Z,9.22
2023-05-25T00:05:58.726Z,9.20
2023-05-25T00:08:25.233Z,9.25
2023-05-25T00:10:51.651Z,9.21
2023-05-25T00:13:18.006Z,9.18
2023-05-25T00:15:44.610Z,9.20
2023-05-25T00:18:11.563Z,9.27
2023-05-25T00:20:38.442Z,9.25
2023-05-25T00:23:04.849Z,9.29
2023-05-25T00:25:31.197Z,9.44
2023-05-25T00:27:57.589Z,9.28
2023-05-25T00:30:23.938Z,9.22
2023-05-25T00:32:51.548Z,9.19
2023-05-25T00:35:17.940Z,9.12
2023-05-25T00:37:44.974Z,9.22
2023-05-25T00:40:14.554Z,9.08
2023-05-25T00:42:48.729Z,9.05
2023-05-25T00:45:15.116Z,9.04
2023-05-25T00:47:41.619Z,8.99
2023-05-25T00:50:09.097Z,9.07
2023-05-25T00:52:35.468Z,9.02
2023-05-25T00:55:02.842Z,9.03
2023-05-25T00:57:34.298Z,9.05
2023-05-25T01:00:02.200Z,9.06
2023-05-25T01:02:29.601Z,9.22
2023-05-25T01:05:00.027Z,9.27
2023-05-25T01:07:27.052Z,9.08
2023-05-25T01:10:04.872Z,9.00
2023-05-25T01:12:32.383Z,8.96
2023-05-25T01:14:59.879Z,9.10
2023-05-25T01:17:29.087Z,8.95
2023-05-25T01:20:09.556Z,8.90
2023-05-25T01:22:44.596Z,8.92
2023-05-25T01:25:21.908Z,8.87
2023-05-25T01:27:57.856Z,8.86
2023-05-25T01:30:25.965Z,9.07
2023-05-25T01:32:53.126Z,8.96
2023-05-25T01:35:20.570Z,9.00
2023-05-25T01:37:47.505Z,8.82
2023-05-25T01:40:14.496Z,8.81
2023-05-25T01:42:40.972Z,8.76
2023-05-25T01:45:08.317Z,8.70
2023-05-25T01:47:43.854Z,8.85
2023-05-25T01:50:22.289Z,8.69
2023-05-25T01:52:56.361Z,8.65
2023-05-25T01:55:26.950Z,8.73
2023-05-25T01:57:57.845Z,8.76
2023-05-25T02:00:27.801Z,8.67
2023-05-25T02:02:55.084Z,8.71
2023-05-25T02:05:21.499Z,8.78
2023-05-25T02:07:47.917Z,8.75
2023-05-25T02:10:14.299Z,8.90
2023-05-25T02:12:40.694Z,8.75
2023-05-25T02:15:07.287Z,8.78
2023-05-25T02:17:33.670Z,8.88
2023-05-25T02:20:00.063Z,8.87
2023-05-25T02:22:27.067Z,9.03
2023-05-25T02:24:53.407Z,9.07
2023-05-25T02:27:19.748Z,8.85
2023-05-25T02:29:46.234Z,8.98
2023-05-25T02:32:12.574Z,8.85
2023-05-25T02:34:47.014Z,8.92
2023-05-25T02:37:13.506Z,8.84
2023-05-25T02:39:39.876Z,8.84
2023-05-25T02:42:06.412Z,8.75
2023-05-25T02:44:32.795Z,8.76
2023-05-25T02:46:59.138Z,8.72
2023-05-25T02:49:25.755Z,8.61
2023-05-25T02:51:52.158Z,8.76
2023-05-25T02:54:18.615Z,8.73
2023-05-25T02:56:44.945Z,8.52
2023-05-25T02:59:11.304Z,8.48
2023-05-25T03:01:37.666Z,8.65
2023-05-25T03:04:04.066Z,8.69
2023-05-25T03:06:30.469Z,8.58
2023-05-25T03:08:57.008Z,8.50
2023-05-25T03:11:23.369Z,8.45
2023-05-25T03:13:50.648Z,8.61
2023-05-25T03:16:17.123Z,8.56
2023-05-25T03:18:43.477Z,8.64
2023-05-25T03:21:09.801Z,8.58
2023-05-25T03:23:36.327Z,8.55
2023-05-25T03:26:02.668Z,8.62
2023-05-25T03:28:29.048Z,8.70
2023-05-25T03:30:56.537Z,8.64
2023-05-25T03:33:22.867Z,8.63
2023-05-25T03:35:49.192Z,8.65
2023-05-25T03:38:15.594Z,8.53
2023-05-25T03:40:41.929Z,8.52
2023-05-25T03:43:08.239Z,8.48
2023-05-25T03:45:34.587Z,8.53
2023-05-25T03:48:00.963Z,8.47
2023-05-25T03:50:27.326Z,8.39
2023-05-25T03:52:53.690Z,8.36
2023-05-25T03:55:20.058Z,8.49
2023-05-25T03:57:46.466Z,8.53
2023-05-25T04:00:13.195Z,8.53
2023-05-25T04:02:39.647Z,8.45
2023-05-25T04:05:06.959Z,8.41
2023-05-25T04:07:33.309Z,7.75
2023-05-25T04:09:59.752Z,8.69
2023-05-25T04:12:27.142Z,8.63
2023-05-25T04:14:53.646Z,8.55
2023-05-25T04:17:22.450Z,8.67
2023-05-25T04:19:48.801Z,8.77
2023-05-25T04:22:15.135Z,8.84
2023-05-25T04:24:44.994Z,8.88
2023-05-25T04:27:11.526Z,9.01
2023-05-25T04:29:38.274Z,9.02
2023-05-25T04:32:05.438Z,9.17
2023-05-25T04:34:33.846Z,9.32
2023-05-25T04:37:05.134Z,9.22
2023-05-25T04:39:34.794Z,9.25
2023-05-25T04:42:12.813Z,9.25
2023-05-25T04:44:40.279Z,9.33
2023-05-25T04:47:10.791Z,9.41
2023-05-25T04:49:38.460Z,9.57
2023-05-25T04:52:05.434Z,9.66
2023-05-25T04:54:31.775Z,9.64
2023-05-25T04:56:59.106Z,9.95
2023-05-25T04:59:25.632Z,9.76
2023-05-25T05:01:54.787Z,9.79
2023-05-25T05:04:21.258Z,9.85
2023-05-25T05:06:47.721Z,9.93
2023-05-25T05:09:14.217Z,10.21
2023-05-25T05:11:40.730Z,10.11
2023-05-25T05:14:07.077Z,10.25
2023-05-25T05:16:35.198Z,10.20
2023-05-25T05:19:02.191Z,10.26
2023-05-25T05:21:28.640Z,10.34
2023-05-25T05:23:56.179Z,10.30
2023-05-25T05:26:23.054Z,10.36
2023-05-25T05:28:49.413Z,10.36
2023-05-25T05:31:17.431Z,10.42
2023-05-25T05:33:43.815Z,10.53
2023-05-25T05:36:10.851Z,10.55
2023-05-25T05:38:38.791Z,10.83
2023-05-25T05:41:13.221Z,10.99
2023-05-25T05:43:43.844Z,10.89
2023-05-25T05:46:13.269Z,10.73
2023-05-25T05:48:39.666Z,10.80
2023-05-25T05:51:06.365Z,10.75
2023-05-25T05:53:33.663Z,10.97
2023-05-25T05:56:00.308Z,10.99
2023-05-25T05:58:26.896Z,11.08
2023-05-25T06:00:53.937Z,11.29
2023-05-25T06:03:20.606Z,11.18
2023-05-25T06:05:47.407Z,11.19
2023-05-25T06:08:14.122Z,11.23
2023-05-25T06:10:40.559Z,11.43
2023-05-25T06:13:08.105Z,11.44
2023-05-25T06:15:35.261Z,11.46
2023-05-25T06:18:01.708Z,11.49
2023-05-25T06:20:28.102Z,11.61
2023-05-25T06:22:54.489Z,11.72
2023-05-25T06:25:20.798Z,11.66
2023-05-25T06:27:47.114Z,11.65
2023-05-25T06:30:13.584Z,11.80
2023-05-25T06:32:40.155Z,11.96
2023-05-25T06:35:08.106Z,11.90
2023-05-25T06:37:37.912Z,11.97
2023-05-25T06:40:13.790Z,11.97
2023-05-25T06:42:40.499Z,11.87
2023-05-25T06:45:07.403Z,11.90
2023-05-25T06:47:33.968Z,12.16
2023-05-25T06:50:00.881Z,12.01
2023-05-25T06:52:28.357Z,12.09
2023-05-25T06:54:55.024Z,12.12
2023-05-25T06:57:21.906Z,12.21
2023-05-25T06:59:48.277Z,12.22
2023-05-25T07:02:14.594Z,12.56
2023-05-25T07:04:40.940Z,12.58
2023-05-25T07:07:07.531Z,12.49
2023-05-25T07:09:33.853Z,12.85
2023-05-25T07:12:00.200Z,12.75
2023-05-25T07:14:26.606Z,12.91
2023-05-25T07:16:52.928Z,12.94
2023-05-25T07:19:19.280Z,12.86
2023-05-25T07:21:45.626Z,13.09
2023-05-25T07:24:11.942Z,13.10
2023-05-25T07:26:38.325Z,13.13
2023-05-25T07:29:04.681Z,13.15
2023-05-25T07:31:31.060Z,13.14
2023-05-25T07:33:57.432Z,13.24
2023-05-25T07:36:25.004Z,13.27
2023-05-25T07:38:51.493Z,13.44
2023-05-25T07:41:17.830Z,13.25
2023-05-25T07:43:44.252Z,13.15
2023-05-25T07:46:10.616Z,13.41
2023-05-25T07:48:37.344Z,13.47
2023-05-25T07:51:03.745Z,13.63
2023-05-25T07:53:30.100Z,13.88
2023-05-25T07:55:56.456Z,13.95
2023-05-25T07:58:22.776Z,13.86
2023-05-25T08:00:50.122Z,14.17
2023-05-25T08:03:16.593Z,14.04
2023-05-25T08:05:44.257Z,14.12
2023-05-25T08:08:10.920Z,14.05
2023-05-25T08:10:37.245Z,13.86
2023-05-25T08:13:03.590Z,13.84
2023-05-25T08:15:29.935Z,14.06
2023-05-25T08:17:56.668Z,14.21
2023-05-25T08:20:24.809Z,14.59
2023-05-25T08:22:53.534Z,14.71
2023-05-25T08:25:20.059Z,14.67
2023-05-25T08:27:47.021Z,14.70
2023-05-25T08:30:13.442Z,14.71
2023-05-25T08:32:39.779Z,14.96
2023-05-25T08:35:06.344Z,15.04
2023-05-25T08:37:32.710Z,15.30
2023-05-25T08:40:00.945Z,15.06
2023-05-25T08:42:27.318Z,14.81
2023-05-25T08:44:53.708Z,14.81
2023-05-25T08:47:22.453Z,14.98
2023-05-25T08:49:50.081Z,15.25
2023-05-25T08:52:20.054Z,15.36
2023-05-25T08:54:48.006Z,15.34
2023-05-25T08:57:23.593Z,15.27
2023-05-25T08:59:56.268Z,15.49
2023-05-25T09:02:39.163Z,15.61
2023-05-25T09:05:05.785Z,15.57
2023-05-25T09:07:32.307Z,15.54
2023-05-25T09:10:01.038Z,15.66
2023-05-25T09:12:30.860Z,15.93
2023-05-25T09:15:00.854Z,16.03
2023-05-25T09:17:27.535Z,16.19
2023-05-25T09:19:54.217Z,15.96
2023-05-25T09:22:20.981Z,15.96
2023-05-25T09:24:47.703Z,16.17
2023-05-25T09:27:18.469Z,16.18
2023-05-25T09:29:46.427Z,16.24
2023-05-25T09:32:12.788Z,16.51
2023-05-25T09:34:39.757Z,16.48
2023-05-25T09:37:11.684Z,16.54
2023-05-25T09:39:38.287Z,16.62
2023-05-25T09:42:04.800Z,16.67
2023-05-25T09:44:31.122Z,16.86
2023-05-25T09:46:57.646Z,16.98
2023-05-25T09:49:23.992Z,17.19
2023-05-25T09:51:50.605Z,17.19
2023-05-25T09:54:16.972Z,17.46
2023-05-25T09:56:43.896Z,17.69
2023-05-25T09:59:11.334Z,17.81
2023-05-25T10:01:38.236Z,17.85
2023-05-25T10:04:05.643Z,17.82
2023-05-25T10:06:33.384Z,18.00
2023-05-25T10:09:00.464Z,18.20
2023-05-25T10:11:27.809Z,18.21
2023-05-25T10:13:55.057Z,18.19
2023-05-25T10:16:33.015Z,18.44
2023-05-25T10:19:08.592Z,17.97
2023-05-25T10:21:36.520Z,17.86
2023-05-25T10:24:06.265Z,18.12
2023-05-25T10:26:35.409Z,18.38
2023-05-25T10:29:04.350Z,18.62
2023-05-25T10:31:32.022Z,18.72
2023-05-25T10:33:59.333Z,18.87
2023-05-25T10:36:26.916Z,19.09
2023-05-25T10:38:54.157Z,18.93
2023-05-25T10:41:20.888Z,18.70
2023-05-25T10:43:47.659Z,18.70
2023-05-25T10:46:15.152Z,18.68
2023-05-25T10:48:48.682Z,18.27
2023-05-25T10:51:15.183Z,18.17
2023-05-25T10:53:45.903Z,18.44
2023-05-25T10:56:13.382Z,18.54
2023-05-25T10:58:44.500Z,18.74
2023-05-25T11:01:12.168Z,18.97
2023-05-25T11:03:45.171Z,18.88
2023-05-25T11:06:12.340Z,18.67
2023-05-25T11:09:02.544Z,18.84
2023-05-25T11:11:48.695Z,18.90
2023-05-25T11:14:30.322Z,19.14
2023-05-25T11:17:08.176Z,19.38
2023-05-25T11:19:42.075Z,19.45
2023-05-25T11:22:13.168Z,19.53
2023-05-25T11:24:39.485Z,19.74
2023-05-25T11:27:06.385Z,19.94
2023-05-25T11:29:33.044Z,19.73
2023-05-25T11:32:00.661Z,19.83
2023-05-25T11:34:28.049Z,19.94
2023-05-25T11:37:04.171Z,19.98
2023-05-25T11:39:31.744Z,19.79
2023-05-25T11:42:05.076Z,19.82
2023-05-25T11:44:33.554Z,19.45
2023-05-25T11:47:08.553Z,19.56
2023-05-25T11:49:35.638Z,19.37
2023-05-25T11:52:04.965Z,19.56
2023-05-25T11:54:31.444Z,19.74
2023-05-25T11:57:00.174Z,19.90
2023-05-25T11:59:29.457Z,19.85
2023-05-25T12:02:00.584Z,19.70
2023-05-25T12:04:27.264Z,19.73
2023-05-25T12:07:00.960Z,20.00
2023-05-25T12:09:27.338Z,19.97
2023-05-25T12:11:53.822Z,20.11
2023-05-25T12:14:20.771Z,20.16
2023-05-25T12:16:47.281Z,19.86
2023-05-25T12:19:14.001Z,19.99
2023-05-25T12:21:40.899Z,19.78
2023-05-25T12:24:08.825Z,19.66
2023-05-25T12:26:35.279Z,19.66
2023-05-25T12:29:02.916Z,19.95
2023-05-25T12:31:31.519Z,20.00
2023-05-25T12:34:04.947Z,19.97
2023-05-25T12:36:43.852Z,19.87
2023-05-25T12:39:11.726Z,20.09
2023-05-25T12:41:47.438Z,20.31
2023-05-25T12:44:17.906Z,19.98
2023-05-25T12:46:44.343Z,19.75
2023-05-25T12:49:28.791Z,19.49
2023-05-25T12:51:55.675Z,19.44
2023-05-25T12:54:39.667Z,19.61
2023-05-25T12:57:07.085Z,19.87
2023-05-25T12:59:34.317Z,19.78
2023-05-25T13:02:02.066Z,19.39
2023-05-25T13:04:28.491Z,19.01
2023-05-25T13:06:55.608Z,18.92
2023-05-25T13:09:23.824Z,19.28
2023-05-25T13:11:50.151Z,19.11
2023-05-25T13:14:16.503Z,19.34
2023-05-25T13:16:42.951Z,19.87
2023-05-25T13:19:09.532Z,19.68
2023-05-25T13:21:36.946Z,19.28
2023-05-25T13:24:03.471Z,19.21
2023-05-25T13:26:29.853Z,19.30
2023-05-25T13:28:56.212Z,18.88
2023-05-25T13:31:25.155Z,18.84
2023-05-25T13:33:51.533Z,18.35
2023-05-25T13:36:17.868Z,18.38
2023-05-25T13:38:45.409Z,18.51
2023-05-25T13:41:12.900Z,18.75
2023-05-25T13:43:39.546Z,18.70
2023-05-25T13:46:05.879Z,18.92
2023-05-25T13:48:32.366Z,18.72
2023-05-25T13:50:59.808Z,18.45
2023-05-25T13:53:27.733Z,18.51
2023-05-25T13:55:56.209Z,18.51
2023-05-25T13:58:25.948Z,18.66
2023-05-25T14:00:55.593Z,18.86
2023-05-25T14:03:26.254Z,18.91
2023-05-25T14:05:53.766Z,18.92
2023-05-25T14:08:20.086Z,18.64
2023-05-25T14:10:46.439Z,18.67
2023-05-25T14:13:13.004Z,18.62
2023-05-25T14:15:39.364Z,19.13
2023-05-25T14:18:05.893Z,19.32
2023-05-25T14:20:42.749Z,19.31
2023-05-25T14:23:10.951Z,19.08
2023-05-25T14:25:39.624Z,18.87
2023-05-25T14:28:05.979Z,19.09
2023-05-25T14:30:32.420Z,19.15
2023-05-25T14:33:00.814Z,18.83
2023-05-25T14:35:27.227Z,18.81
2023-05-25T14:37:53.581Z,18.77
2023-05-25T14:40:20.936Z,18.53
2023-05-25T14:42:47.480Z,18.36
2023-05-25T14:45:15.902Z,18.48
2023-05-25T14:47:42.959Z,18.05
2023-05-25T14:50:09.567Z,18.06
2023-05-25T14:52:37.197Z,18.25
2023-05-25T14:55:03.597Z,18.09
2023-05-25T14:57:29.945Z,18.49
2023-05-25T14:59:56.523Z,18.60
2023-05-25T15:02:23.018Z,18.71
2023-05-25T15:04:49.472Z,19.02
2023-05-25T15:07:16.033Z,19.03
2023-05-25T15:09:42.882Z,19.19
2023-05-25T15:12:09.224Z,19.33
2023-05-25T15:14:39.758Z,19.25
2023-05-25T15:17:06.982Z,19.38
2023-05-25T15:19:33.403Z,18.67
2023-05-25T15:21:59.806Z,18.55
2023-05-25T15:24:26.351Z,18.55
2023-05-25T15:26:52.704Z,18.51
2023-05-25T15:29:19.061Z,18.28
2023-05-25T15:31:45.714Z,18.16
2023-05-25T15:34:12.117Z,18.14
2023-05-25T15:36:38.480Z,18.18
2023-05-25T15:39:09.010Z,18.25
2023-05-25T15:41:35.443Z,18.17
2023-05-25T15:44:01.822Z,18.36
2023-05-25T15:46:34.898Z,18.33
2023-05-25T15:49:01.249Z,18.47
2023-05-25T15:51:27.626Z,18.62
2023-05-25T15:53:56.168Z,19.03
2023-05-25T15:56:22.996Z,19.01
2023-05-25T15:58:49.445Z,19.07
2023-05-25T16:01:15.895Z,19.06
2023-05-25T16:03:45.374Z,19.02
2023-05-25T16:06:11.765Z,18.93
2023-05-25T16:08:38.159Z,18.95
2023-05-25T16:11:04.525Z,18.94
2023-05-25T16:13:30.955Z,18.60
2023-05-25T16:15:57.340Z,18.26
2023-05-25T16:18:23.701Z,18.50
2023-05-25T16:20:55.821Z,18.74
2023-05-25T16:23:22.848Z,18.94
2023-05-25T16:25:49.987Z,18.92
2023-05-25T16:28:16.451Z,19.01
2023-05-25T16:30:42.848Z,19.10
2023-05-25T16:33:09.268Z,19.42
2023-05-25T16:35:35.633Z,19.33
2023-05-25T16:38:01.979Z,19.23
2023-05-25T16:40:31.505Z,19.17
2023-05-25T16:42:57.860Z,18.80
2023-05-25T16:45:24.198Z,18.82
2023-05-25T16:47:50.808Z,18.85
2023-05-25T16:50:18.362Z,19.09
2023-05-25T16:52:46.815Z,18.97
2023-05-25T16:55:14.545Z,18.96
2023-05-25T16:57:47.025Z,18.92
2023-05-25T17:00:14.107Z,18.94
2023-05-25T17:02:40.564Z,19.11
2023-05-25T17:05:08.395Z,19.08
2023-05-25T17:07:34.931Z,19.08
2023-05-25T17:10:01.713Z,19.15
2023-05-25T17:12:29.090Z,19.47
2023-05-25T17:14:56.480Z,19.30
2023-05-25T17:17:22.990Z,19.23
2023-05-25T17:19:49.378Z,19.45
2023-05-25T17:22:16.170Z,19.55
2023-05-25T17:24:42.578Z,19.64
2023-05-25T17:27:08.923Z,19.70
2023-05-25T17:29:35.354Z,19.61
2023-05-25T17:32:01.772Z,19.61
2023-05-25T17:34:28.129Z,19.05
2023-05-25T17:36:54.462Z,19.41
2023-05-25T17:39:21.833Z,19.36
2023-05-25T17:41:49.932Z,19.20
2023-05-25T17:44:17.383Z,19.16
2023-05-25T17:46:44.801Z,19.23
2023-05-25T17:49:11.744Z,19.18
2023-05-25T17:51:38.109Z,19.24
2023-05-25T17:54:04.550Z,19.01
2023-05-25T17:56:31.027Z,18.96
2023-05-25T17:58:57.364Z,19.11
2023-05-25T18:01:24.827Z,19.01
2023-05-25T18:03:52.352Z,18.89
2023-05-25T18:06:18.837Z,18.74
2023-05-25T18:08:45.266Z,18.76
2023-05-25T18:11:11.584Z,18.70
2023-05-25T18:13:37.934Z,18.52
2023-05-25T18:16:04.281Z,18.38
2023-05-25T18:18:30.669Z,18.29
2023-05-25T18:20:57.001Z,18.19
2023-05-25T18:23:23.351Z,18.18
2023-05-25T18:25:49.716Z,18.09
2023-05-25T18:28:16.097Z,18.06
2023-05-25T18:30:42.747Z,17.99
2023-05-25T18:33:10.570Z,17.96
2023-05-25T18:35:38.286Z,17.93
2023-05-25T18:38:05.039Z,17.82
2023-05-25T18:40:31.572Z,17.79
2023-05-25T18:42:58.920Z,17.72
2023-05-25T18:45:26.062Z,17.65
2023-05-25T18:47:52.552Z,17.55
2023-05-25T18:50:19.406Z,17.42
2023-05-25T18:52:50.423Z,17.32
2023-05-25T18:55:17.696Z,17.25
2023-05-25T18:57:44.472Z,17.11
2023-05-25T19:00:11.235Z,16.99
2023-05-25T19:02:38.672Z,16.88
2023-05-25T19:05:05.327Z,16.65
2023-05-25T19:07:31.863Z,16.54
2023-05-25T19:09:58.203Z,16.33
2023-05-25T19:12:24.517Z,16.21
2023-05-25T19:14:50.857Z,16.04
2023-05-25T19:17:18.171Z,15.97
2023-05-25T19:19:44.506Z,15.90
2023-05-25T19:22:10.883Z,15.80
2023-05-25T19:24:42.365Z,15.72
2023-05-25T19:27:15.553Z,15.71
2023-05-25T19:29:43.450Z,15.56
2023-05-25T19:32:09.876Z,15.44
2023-05-25T19:34:36.970Z,15.35
2023-05-25T19:39:37.274Z,15.12
2023-05-25T19:42:03.718Z,15.20
2023-05-25T19:44:33.117Z,15.20
2023-05-25T19:47:00.531Z,15.07
2023-05-25T19:49:26.870Z,14.97
2023-05-25T19:51:58.196Z,14.76
2023-05-25T19:54:24.549Z,14.70
2023-05-25T19:56:51.170Z,14.60
2023-05-25T19:59:17.616Z,14.49
2023-05-25T20:01:44.086Z,14.69
2023-05-25T20:04:11.470Z,14.63
2023-05-25T20:06:38.840Z,14.56
2023-05-25T20:09:05.281Z,14.40
2023-05-25T20:11:31.630Z,14.32
2023-05-25T20:24:33.147Z,13.82
2023-05-25T20:26:59.890Z,13.75
2023-05-25T20:29:26.485Z,14.00
2023-05-25T20:31:53.063Z,14.24
2023-05-25T20:34:19.496Z,13.88
2023-05-25T20:36:45.957Z,13.78
2023-05-25T20:39:12.342Z,13.69
2023-05-25T20:41:40.903Z,13.66
2023-05-25T20:44:07.243Z,13.65
2023-05-25T20:46:34.059Z,13.66
2023-05-25T20:49:00.699Z,13.64
2023-05-25T20:51:27.080Z,13.45
2023-05-25T20:53:53.887Z,13.22
2023-05-25T20:56:20.426Z,13.08
2023-05-25T20:58:47.002Z,13.03
2023-05-25T21:01:13.470Z,12.90
2023-05-25T21:03:43.055Z,12.84
2023-05-25T21:06:09.494Z,12.75
2023-05-25T21:08:36.021Z,12.70
2023-05-25T21:11:02.457Z,12.64
2023-05-25T21:13:28.910Z,12.61
2023-05-25T21:15:55.332Z,12.57
2023-05-25T21:18:21.741Z,12.55
2023-05-25T21:20:48.089Z,12.44
2023-05-25T21:23:14.513Z,12.42
2023-05-25T21:25:40.882Z,12.42
2023-05-25T21:28:09.116Z,12.33
2023-05-25T21:30:42.482Z,12.34
2023-05-25T21:33:08.909Z,12.32
2023-05-25T21:35:35.327Z,12.31
2023-05-25T21:38:01.654Z,12.31
2023-05-25T21:40:28.578Z,12.25
2023-05-25T21:42:55.076Z,12.18
2023-05-25T21:45:21.496Z,12.13
2023-05-25T21:47:48.220Z,12.19
2023-05-25T21:50:14.679Z,12.12
2023-05-25T21:52:41.526Z,11.94
2023-05-25T21:55:12.169Z,11.82
2023-05-25T21:57:38.511Z,11.77
2023-05-25T22:00:06.186Z,11.70
2023-05-25T22:02:32.605Z,11.62
2023-05-25T22:04:59.004Z,11.83
2023-05-25T22:07:25.433Z,11.77
2023-05-25T22:09:52.758Z,11.61
2023-05-25T22:12:20.091Z,11.56
2023-05-25T22:14:46.441Z,11.56
2023-05-25T22:17:13.023Z,11.52
2023-05-25T22:19:39.448Z,11.45
2023-05-25T22:22:05.764Z,11.44
2023-05-25T22:24:32.136Z,11.36
2023-05-25T22:26:58.450Z,11.33
2023-05-25T22:29:24.793Z,11.31
2023-05-25T22:31:51.287Z,11.23
2023-05-25T22:34:17.679Z,11.18
2023-05-25T22:36:43.991Z,11.14
2023-05-25T22:39:10.414Z,11.28
2023-05-25T22:41:36.751Z,11.19
2023-05-25T22:44:06.292Z,11.09
2023-05-25T22:46:32.733Z,11.05
2023-05-25T22:48:59.124Z,10.99
2023-05-25T22:51:25.474Z,10.99
2023-05-25T22:53:51.894Z,10.93
2023-05-25T22:56:18.228Z,10.90
2023-05-25T22:58:44.563Z,10.83
2023-05-25T23:01:10.966Z,10.82
2023-05-25T23:03:37.422Z,10.76
2023-05-25T23:06:03.873Z,10.76
2023-05-25T23:08:30.274Z,10.69
2023-05-25T23:10:56.635Z,10.67
2023-05-25T23:13:24.259Z,10.62
2023-05-25T23:15:50.801Z,10.57
2023-05-25T23:18:17.148Z,10.54
2023-05-25T23:20:43.720Z,10.54
2023-05-25T23:23:10.202Z,10.47
2023-05-25T23:25:36.542Z,10.47
2023-05-25T23:28:02.931Z,10.45
2023-05-25T23:30:29.284Z,10.44
2023-05-25T23:32:55.660Z,10.43
2023-05-25T23:35:23.093Z,10.48
2023-05-25T23:37:50.175Z,10.47
2023-05-25T23:40:16.574Z,10.44
2023-05-25T23:42:43.579Z,10.39
2023-05-25T23:45:10.182Z,10.34
2023-05-25T23:47:36.593Z,10.31
2023-05-25T23:50:03.009Z,10.35
2023-05-25T23:52:29.338Z,10.42
2023-05-25T23:54:55.791Z,10.43
2023-05-25T23:57:22.113Z,10.34
2023-05-25T23:59:48.443Z,10.22
